sensor_id;sensor_type;location;lat;lon;timestamp;temperature;humidity
18412;DHT22;27097;51.738;19.472;2022-12-20T00:01:44;22.10;50.70
18412;DHT22;27097;51.738;19.472;2022-12-20T00:04:11;22.10;50.80
18412;DHT22;27097;51.738;19.472;2022-12-20T00:06:38;22.10;50.90
18412;DHT22;27097;51.738;19.472;2022-12-20T00:09:08;22.10;50.50
18412;DHT22;27097;51.738;19.472;2022-12-20T00:11:37;22.10;50.40
18412;DHT22;27097;51.738;19.472;2022-12-20T00:14:04;22.10;50.10
18412;DHT22;27097;51.738;19.472;2022-12-20T00:16:31;22.10;50.10
18412;DHT22;27097;51.738;19.472;2022-12-20T00:19:01;22.10;50.20
18412;DHT22;27097;51.738;19.472;2022-12-20T00:21:29;22.10;49.80
18412;DHT22;27097;51.738;19.472;2022-12-20T00:23:56;22.10;49.60
18412;DHT22;27097;51.738;19.472;2022-12-20T00:26:27;22.00;49.40
18412;DHT22;27097;51.738;19.472;2022-12-20T00:28:54;22.00;49.30
18412;DHT22;27097;51.738;19.472;2022-12-20T00:31:24;22.00;49.10
18412;DHT22;27097;51.738;19.472;2022-12-20T00:33:53;22.00;49.00
18412;DHT22;27097;51.738;19.472;2022-12-20T00:36:22;22.00;49.40
18412;DHT22;27097;51.738;19.472;2022-12-20T00:38:51;22.00;49.30
18412;DHT22;27097;51.738;19.472;2022-12-20T00:41:20;22.00;52.20
18412;DHT22;27097;51.738;19.472;2022-12-20T00:43:50;22.00;51.80
18412;DHT22;27097;51.738;19.472;2022-12-20T00:46:18;22.00;51.70
18412;DHT22;27097;51.738;19.472;2022-12-20T00:48:45;22.00;51.40
18412;DHT22;27097;51.738;19.472;2022-12-20T00:51:14;22.00;54.10
18412;DHT22;27097;51.738;19.472;2022-12-20T00:53:42;22.00;56.30
18412;DHT22;27097;51.738;19.472;2022-12-20T00:56:09;22.00;56.10
18412;DHT22;27097;51.738;19.472;2022-12-20T00:58:38;22.00;56.20
18412;DHT22;27097;51.738;19.472;2022-12-20T01:01:15;22.10;56.10
18412;DHT22;27097;51.738;19.472;2022-12-20T01:03:42;22.10;56.00
18412;DHT22;27097;51.738;19.472;2022-12-20T01:06:10;22.10;56.10
18412;DHT22;27097;51.738;19.472;2022-12-20T01:08:37;22.20;56.20
18412;DHT22;27097;51.738;19.472;2022-12-20T01:11:06;22.20;56.90
18412;DHT22;27097;51.738;19.472;2022-12-20T01:13:35;22.20;56.80
18412;DHT22;27097;51.738;19.472;2022-12-20T01:16:04;22.20;57.00
18412;DHT22;27097;51.738;19.472;2022-12-20T01:18:32;22.20;57.30
18412;DHT22;27097;51.738;19.472;2022-12-20T01:21:03;22.20;56.80
18412;DHT22;27097;51.738;19.472;2022-12-20T01:23:31;22.20;57.10
18412;DHT22;27097;51.738;19.472;2022-12-20T01:25:58;22.20;57.60
18412;DHT22;27097;51.738;19.472;2022-12-20T01:28:26;22.20;57.30
18412;DHT22;27097;51.738;19.472;2022-12-20T01:30:53;22.20;57.00
18412;DHT22;27097;51.738;19.472;2022-12-20T01:33:20;22.20;57.50
18412;DHT22;27097;51.738;19.472;2022-12-20T01:35:56;22.20;57.20
18412;DHT22;27097;51.738;19.472;2022-12-20T01:38:24;22.30;57.20
18412;DHT22;27097;51.738;19.472;2022-12-20T01:40:51;22.20;57.10
18412;DHT22;27097;51.738;19.472;2022-12-20T01:43:19;22.30;56.90
18412;DHT22;27097;51.738;19.472;2022-12-20T01:45:47;22.20;56.90
18412;DHT22;27097;51.738;19.472;2022-12-20T01:48:17;22.20;57.00
18412;DHT22;27097;51.738;19.472;2022-12-20T01:50:47;22.20;56.90
18412;DHT22;27097;51.738;19.472;2022-12-20T01:53:18;22.20;57.00
18412;DHT22;27097;51.738;19.472;2022-12-20T01:55:48;22.20;57.40
18412;DHT22;27097;51.738;19.472;2022-12-20T01:58:17;22.20;57.50
18412;DHT22;27097;51.738;19.472;2022-12-20T02:00:45;22.20;57.30
18412;DHT22;27097;51.738;19.472;2022-12-20T02:03:14;22.20;57.10
18412;DHT22;27097;51.738;19.472;2022-12-20T02:05:44;22.30;57.00
18412;DHT22;27097;51.738;19.472;2022-12-20T02:08:17;22.20;57.20
18412;DHT22;27097;51.738;19.472;2022-12-20T02:11:04;22.20;57.10
18412;DHT22;27097;51.738;19.472;2022-12-20T02:13:42;22.20;57.00
18412;DHT22;27097;51.738;19.472;2022-12-20T02:16:15;22.20;57.10
18412;DHT22;27097;51.738;19.472;2022-12-20T02:18:50;22.20;56.80
18412;DHT22;27097;51.738;19.472;2022-12-20T02:21:27;22.20;57.00
18412;DHT22;27097;51.738;19.472;2022-12-20T02:24:24;22.20;56.90
18412;DHT22;27097;51.738;19.472;2022-12-20T02:27:14;22.20;57.00
18412;DHT22;27097;51.738;19.472;2022-12-20T02:30:05;22.20;57.40
18412;DHT22;27097;51.738;19.472;2022-12-20T02:32:37;22.20;57.20
18412;DHT22;27097;51.738;19.472;2022-12-20T02:35:07;22.20;57.10
18412;DHT22;27097;51.738;19.472;2022-12-20T02:37:34;22.20;56.90
18412;DHT22;27097;51.738;19.472;2022-12-20T02:40:03;22.20;57.30
18412;DHT22;27097;51.738;19.472;2022-12-20T02:42:32;22.20;57.00
18412;DHT22;27097;51.738;19.472;2022-12-20T02:45:05;22.20;56.80
18412;DHT22;27097;51.738;19.472;2022-12-20T02:47:47;22.30;56.80
18412;DHT22;27097;51.738;19.472;2022-12-20T02:50:16;22.20;56.80
18412;DHT22;27097;51.738;19.472;2022-12-20T02:52:44;22.20;56.40
18412;DHT22;27097;51.738;19.472;2022-12-20T02:55:11;22.20;56.70
18412;DHT22;27097;51.738;19.472;2022-12-20T02:57:44;22.20;56.60
18412;DHT22;27097;51.738;19.472;2022-12-20T03:00:16;22.20;56.30
18412;DHT22;27097;51.738;19.472;2022-12-20T03:02:44;22.20;56.50
18412;DHT22;27097;51.738;19.472;2022-12-20T03:05:29;22.20;56.80
18412;DHT22;27097;51.738;19.472;2022-12-20T03:07:58;22.20;56.60
18412;DHT22;27097;51.738;19.472;2022-12-20T03:10:25;22.30;56.30
18412;DHT22;27097;51.738;19.472;2022-12-20T03:12:52;22.30;56.30
18412;DHT22;27097;51.738;19.472;2022-12-20T03:15:20;22.30;56.60
18412;DHT22;27097;51.738;19.472;2022-12-20T03:17:47;22.30;56.30
18412;DHT22;27097;51.738;19.472;2022-12-20T03:20:14;22.30;56.80
18412;DHT22;27097;51.738;19.472;2022-12-20T03:22:41;22.30;56.20
18412;DHT22;27097;51.738;19.472;2022-12-20T03:25:08;22.30;56.30
18412;DHT22;27097;51.738;19.472;2022-12-20T03:27:35;22.30;56.40
18412;DHT22;27097;51.738;19.472;2022-12-20T03:30:02;22.30;56.30
18412;DHT22;27097;51.738;19.472;2022-12-20T03:32:31;22.30;56.10
18412;DHT22;27097;51.738;19.472;2022-12-20T03:34:58;22.30;56.30
18412;DHT22;27097;51.738;19.472;2022-12-20T03:37:26;22.30;56.40
18412;DHT22;27097;51.738;19.472;2022-12-20T03:39:53;22.30;56.30
18412;DHT22;27097;51.738;19.472;2022-12-20T03:42:19;22.30;56.20
18412;DHT22;27097;51.738;19.472;2022-12-20T03:44:46;22.30;56.20
18412;DHT22;27097;51.738;19.472;2022-12-20T03:47:13;22.30;55.90
18412;DHT22;27097;51.738;19.472;2022-12-20T03:49:41;22.30;55.70
18412;DHT22;27097;51.738;19.472;2022-12-20T03:52:10;22.30;55.80
18412;DHT22;27097;51.738;19.472;2022-12-20T03:54:37;22.30;55.60
18412;DHT22;27097;51.738;19.472;2022-12-20T03:57:04;22.30;55.90
18412;DHT22;27097;51.738;19.472;2022-12-20T03:59:31;22.30;56.10
18412;DHT22;27097;51.738;19.472;2022-12-20T04:01:58;22.30;56.10
18412;DHT22;27097;51.738;19.472;2022-12-20T04:04:25;22.30;55.90
18412;DHT22;27097;51.738;19.472;2022-12-20T04:06:53;22.30;56.30
18412;DHT22;27097;51.738;19.472;2022-12-20T04:09:20;22.30;56.20
18412;DHT22;27097;51.738;19.472;2022-12-20T04:11:47;22.30;55.90
18412;DHT22;27097;51.738;19.472;2022-12-20T04:14:14;22.30;56.20
18412;DHT22;27097;51.738;19.472;2022-12-20T04:16:41;22.30;56.00
18412;DHT22;27097;51.738;19.472;2022-12-20T04:19:08;22.30;56.50
18412;DHT22;27097;51.738;19.472;2022-12-20T04:21:35;22.30;56.00
18412;DHT22;27097;51.738;19.472;2022-12-20T04:24:04;22.30;55.60
18412;DHT22;27097;51.738;19.472;2022-12-20T04:26:31;22.30;56.00
18412;DHT22;27097;51.738;19.472;2022-12-20T04:28:58;22.30;55.90
18412;DHT22;27097;51.738;19.472;2022-12-20T04:31:25;22.30;56.00
18412;DHT22;27097;51.738;19.472;2022-12-20T04:33:52;22.30;55.90
18412;DHT22;27097;51.738;19.472;2022-12-20T04:36:19;22.30;55.70
18412;DHT22;27097;51.738;19.472;2022-12-20T04:38:46;22.30;55.90
18412;DHT22;27097;51.738;19.472;2022-12-20T04:41:15;22.30;55.70
18412;DHT22;27097;51.738;19.472;2022-12-20T04:43:49;22.30;55.50
18412;DHT22;27097;51.738;19.472;2022-12-20T04:46:16;22.30;55.80
18412;DHT22;27097;51.738;19.472;2022-12-20T04:48:43;22.30;55.90
18412;DHT22;27097;51.738;19.472;2022-12-20T04:51:10;22.30;56.00
18412;DHT22;27097;51.738;19.472;2022-12-20T04:53:37;22.30;55.80
18412;DHT22;27097;51.738;19.472;2022-12-20T04:56:14;22.30;55.80
18412;DHT22;27097;51.738;19.472;2022-12-20T04:58:43;22.30;55.80
18412;DHT22;27097;51.738;19.472;2022-12-20T05:01:10;22.30;55.90
18412;DHT22;27097;51.738;19.472;2022-12-20T05:03:37;22.30;55.50
18412;DHT22;27097;51.738;19.472;2022-12-20T05:06:05;22.30;55.70
18412;DHT22;27097;51.738;19.472;2022-12-20T05:08:32;22.30;55.80
18412;DHT22;27097;51.738;19.472;2022-12-20T05:10:59;22.30;55.70
18412;DHT22;27097;51.738;19.472;2022-12-20T05:13:28;22.30;55.90
18412;DHT22;27097;51.738;19.472;2022-12-20T05:15:56;22.30;55.50
18412;DHT22;27097;51.738;19.472;2022-12-20T05:18:24;22.30;55.80
18412;DHT22;27097;51.738;19.472;2022-12-20T05:20:54;22.30;55.90
18412;DHT22;27097;51.738;19.472;2022-12-20T05:23:36;22.30;55.60
18412;DHT22;27097;51.738;19.472;2022-12-20T05:26:21;22.30;55.50
18412;DHT22;27097;51.738;19.472;2022-12-20T05:28:50;22.30;55.70
18412;DHT22;27097;51.738;19.472;2022-12-20T05:31:18;22.30;55.70
18412;DHT22;27097;51.738;19.472;2022-12-20T05:33:45;22.30;55.70
18412;DHT22;27097;51.738;19.472;2022-12-20T05:36:12;22.30;55.80
18412;DHT22;27097;51.738;19.472;2022-12-20T05:38:39;22.30;55.90
18412;DHT22;27097;51.738;19.472;2022-12-20T05:41:06;22.30;55.60
18412;DHT22;27097;51.738;19.472;2022-12-20T05:43:33;22.30;55.50
18412;DHT22;27097;51.738;19.472;2022-12-20T05:46:01;22.30;55.90
18412;DHT22;27097;51.738;19.472;2022-12-20T05:48:28;22.30;55.60
18412;DHT22;27097;51.738;19.472;2022-12-20T05:50:55;22.30;55.30
18412;DHT22;27097;51.738;19.472;2022-12-20T05:53:22;22.30;55.40
18412;DHT22;27097;51.738;19.472;2022-12-20T05:55:51;22.40;55.80
18412;DHT22;27097;51.738;19.472;2022-12-20T05:58:18;22.30;55.70
18412;DHT22;27097;51.738;19.472;2022-12-20T06:00:45;22.30;55.70
18412;DHT22;27097;51.738;19.472;2022-12-20T06:03:14;22.30;55.90
18412;DHT22;27097;51.738;19.472;2022-12-20T06:05:42;22.30;55.70
18412;DHT22;27097;51.738;19.472;2022-12-20T06:08:10;22.30;55.30
18412;DHT22;27097;51.738;19.472;2022-12-20T06:10:38;22.40;55.40
18412;DHT22;27097;51.738;19.472;2022-12-20T06:13:07;22.30;55.00
18412;DHT22;27097;51.738;19.472;2022-12-20T06:15:34;22.30;54.50
18412;DHT22;27097;51.738;19.472;2022-12-20T06:18:01;22.30;54.30
18412;DHT22;27097;51.738;19.472;2022-12-20T06:20:29;22.30;54.00
18412;DHT22;27097;51.738;19.472;2022-12-20T06:22:56;22.30;53.80
18412;DHT22;27097;51.738;19.472;2022-12-20T06:25:23;22.30;53.50
18412;DHT22;27097;51.738;19.472;2022-12-20T06:27:50;22.30;53.10
18412;DHT22;27097;51.738;19.472;2022-12-20T06:30:17;22.30;53.30
18412;DHT22;27097;51.738;19.472;2022-12-20T06:32:45;22.30;53.80
18412;DHT22;27097;51.738;19.472;2022-12-20T06:35:12;22.30;53.70
18412;DHT22;27097;51.738;19.472;2022-12-20T06:37:40;22.30;53.90
18412;DHT22;27097;51.738;19.472;2022-12-20T06:40:09;22.30;54.50
18412;DHT22;27097;51.738;19.472;2022-12-20T06:42:36;22.30;53.60
18412;DHT22;27097;51.738;19.472;2022-12-20T06:45:04;22.30;53.70
18412;DHT22;27097;51.738;19.472;2022-12-20T06:47:31;22.30;53.90
18412;DHT22;27097;51.738;19.472;2022-12-20T06:49:58;22.30;54.00
18412;DHT22;27097;51.738;19.472;2022-12-20T06:52:24;22.30;53.90
18412;DHT22;27097;51.738;19.472;2022-12-20T06:54:53;22.30;54.10
18412;DHT22;27097;51.738;19.472;2022-12-20T06:57:20;22.30;54.10
18412;DHT22;27097;51.738;19.472;2022-12-20T06:59:46;22.30;54.00
18412;DHT22;27097;51.738;19.472;2022-12-20T07:02:14;22.30;54.00
18412;DHT22;27097;51.738;19.472;2022-12-20T07:04:41;22.30;53.60
18412;DHT22;27097;51.738;19.472;2022-12-20T07:07:08;22.30;53.60
18412;DHT22;27097;51.738;19.472;2022-12-20T07:09:35;22.30;53.80
18412;DHT22;27097;51.738;19.472;2022-12-20T07:12:04;22.30;53.60
18412;DHT22;27097;51.738;19.472;2022-12-20T07:14:31;22.30;53.80
18412;DHT22;27097;51.738;19.472;2022-12-20T07:16:58;22.30;54.10
18412;DHT22;27097;51.738;19.472;2022-12-20T07:19:25;22.30;54.50
18412;DHT22;27097;51.738;19.472;2022-12-20T07:21:52;22.30;54.30
18412;DHT22;27097;51.738;19.472;2022-12-20T07:24:19;22.30;54.40
18412;DHT22;27097;51.738;19.472;2022-12-20T07:26:45;22.30;54.50
18412;DHT22;27097;51.738;19.472;2022-12-20T07:29:14;22.40;54.60
18412;DHT22;27097;51.738;19.472;2022-12-20T07:31:41;22.30;54.50
18412;DHT22;27097;51.738;19.472;2022-12-20T07:34:07;22.40;54.50
18412;DHT22;27097;51.738;19.472;2022-12-20T07:36:34;22.40;54.20
18412;DHT22;27097;51.738;19.472;2022-12-20T07:39:01;22.40;54.00
18412;DHT22;27097;51.738;19.472;2022-12-20T07:41:28;22.40;53.80
18412;DHT22;27097;51.738;19.472;2022-12-20T07:43:55;22.30;53.90
18412;DHT22;27097;51.738;19.472;2022-12-20T07:46:24;22.40;53.70
18412;DHT22;27097;51.738;19.472;2022-12-20T07:48:51;22.30;53.50
18412;DHT22;27097;51.738;19.472;2022-12-20T07:51:20;22.30;54.40
18412;DHT22;27097;51.738;19.472;2022-12-20T07:53:50;22.30;54.50
18412;DHT22;27097;51.738;19.472;2022-12-20T07:56:19;22.30;54.00
18412;DHT22;27097;51.738;19.472;2022-12-20T07:58:48;22.30;53.30
18412;DHT22;27097;51.738;19.472;2022-12-20T08:01:17;22.30;52.70
18412;DHT22;27097;51.738;19.472;2022-12-20T08:03:48;22.30;52.40
18412;DHT22;27097;51.738;19.472;2022-12-20T08:06:16;22.20;52.50
18412;DHT22;27097;51.738;19.472;2022-12-20T08:08:47;22.20;53.60
18412;DHT22;27097;51.738;19.472;2022-12-20T08:11:15;22.20;54.10
18412;DHT22;27097;51.738;19.472;2022-12-20T08:13:44;22.20;54.30
18412;DHT22;27097;51.738;19.472;2022-12-20T08:16:11;22.20;54.60
18412;DHT22;27097;51.738;19.472;2022-12-20T08:18:38;22.20;55.10
18412;DHT22;27097;51.738;19.472;2022-12-20T08:21:07;22.20;55.20
18412;DHT22;27097;51.738;19.472;2022-12-20T08:23:35;22.20;55.30
18412;DHT22;27097;51.738;19.472;2022-12-20T08:26:02;22.20;55.60
18412;DHT22;27097;51.738;19.472;2022-12-20T08:28:29;22.20;56.20
18412;DHT22;27097;51.738;19.472;2022-12-20T08:31:00;22.20;56.70
18412;DHT22;27097;51.738;19.472;2022-12-20T08:33:27;22.20;57.20
18412;DHT22;27097;51.738;19.472;2022-12-20T08:35:57;22.20;57.50
18412;DHT22;27097;51.738;19.472;2022-12-20T08:38:27;22.20;57.50
18412;DHT22;27097;51.738;19.472;2022-12-20T08:40:54;22.20;58.20
18412;DHT22;27097;51.738;19.472;2022-12-20T08:43:21;22.20;58.50
18412;DHT22;27097;51.738;19.472;2022-12-20T08:45:52;22.20;58.90
18412;DHT22;27097;51.738;19.472;2022-12-20T08:48:20;22.20;59.10
18412;DHT22;27097;51.738;19.472;2022-12-20T08:50:47;22.20;59.30
18412;DHT22;27097;51.738;19.472;2022-12-20T08:53:19;22.20;59.40
18412;DHT22;27097;51.738;19.472;2022-12-20T08:55:47;22.30;59.60
18412;DHT22;27097;51.738;19.472;2022-12-20T08:58:14;22.30;59.50
18412;DHT22;27097;51.738;19.472;2022-12-20T09:00:41;22.30;59.80
18412;DHT22;27097;51.738;19.472;2022-12-20T09:03:08;22.30;60.40
18412;DHT22;27097;51.738;19.472;2022-12-20T09:05:40;22.30;60.50
18412;DHT22;27097;51.738;19.472;2022-12-20T09:08:08;22.30;60.70
18412;DHT22;27097;51.738;19.472;2022-12-20T09:10:35;22.30;61.10
18412;DHT22;27097;51.738;19.472;2022-12-20T09:13:03;22.30;61.20
18412;DHT22;27097;51.738;19.472;2022-12-20T09:15:32;22.30;61.40
18412;DHT22;27097;51.738;19.472;2022-12-20T09:17:59;22.30;61.20
18412;DHT22;27097;51.738;19.472;2022-12-20T09:20:26;22.30;61.80
18412;DHT22;27097;51.738;19.472;2022-12-20T09:22:53;22.30;61.60
18412;DHT22;27097;51.738;19.472;2022-12-20T09:25:20;22.30;61.80
18412;DHT22;27097;51.738;19.472;2022-12-20T09:27:47;22.30;61.70
18412;DHT22;27097;51.738;19.472;2022-12-20T09:30:16;22.30;61.80
18412;DHT22;27097;51.738;19.472;2022-12-20T09:32:43;22.30;61.80
18412;DHT22;27097;51.738;19.472;2022-12-20T09:35:10;22.30;62.10
18412;DHT22;27097;51.738;19.472;2022-12-20T09:37:37;22.30;61.90
18412;DHT22;27097;51.738;19.472;2022-12-20T09:40:05;22.30;61.90
18412;DHT22;27097;51.738;19.472;2022-12-20T09:42:33;22.30;62.80
18412;DHT22;27097;51.738;19.472;2022-12-20T09:45:04;22.30;54.70
18412;DHT22;27097;51.738;19.472;2022-12-20T09:47:34;21.90;54.50
18412;DHT22;27097;51.738;19.472;2022-12-20T09:50:03;21.40;51.50
18412;DHT22;27097;51.738;19.472;2022-12-20T09:52:46;20.80;51.20
18412;DHT22;27097;51.738;19.472;2022-12-20T09:55:23;20.30;58.60
18412;DHT22;27097;51.738;19.472;2022-12-20T09:58:04;20.30;62.90
18412;DHT22;27097;51.738;19.472;2022-12-20T10:00:40;20.30;62.10
18412;DHT22;27097;51.738;19.472;2022-12-20T10:03:15;20.50;62.30
18412;DHT22;27097;51.738;19.472;2022-12-20T10:05:50;20.70;61.80
18412;DHT22;27097;51.738;19.472;2022-12-20T10:08:24;20.90;61.30
18412;DHT22;27097;51.738;19.472;2022-12-20T10:10:56;21.10;61.60
18412;DHT22;27097;51.738;19.472;2022-12-20T10:13:40;21.20;61.20
18412;DHT22;27097;51.738;19.472;2022-12-20T10:16:29;21.30;61.90
18412;DHT22;27097;51.738;19.472;2022-12-20T10:19:07;21.40;61.70
18412;DHT22;27097;51.738;19.472;2022-12-20T10:21:44;21.50;61.60
18412;DHT22;27097;51.738;19.472;2022-12-20T10:24:16;21.60;62.40
18412;DHT22;27097;51.738;19.472;2022-12-20T10:26:45;21.70;62.00
18412;DHT22;27097;51.738;19.472;2022-12-20T10:29:14;21.70;61.20
18412;DHT22;27097;51.738;19.472;2022-12-20T10:31:41;21.80;61.70
18412;DHT22;27097;51.738;19.472;2022-12-20T10:34:09;21.80;62.00
18412;DHT22;27097;51.738;19.472;2022-12-20T10:36:37;21.90;61.70
18412;DHT22;27097;51.738;19.472;2022-12-20T10:39:05;21.90;61.10
18412;DHT22;27097;51.738;19.472;2022-12-20T10:41:44;21.90;61.20
18412;DHT22;27097;51.738;19.472;2022-12-20T10:44:19;22.00;61.80
18412;DHT22;27097;51.738;19.472;2022-12-20T10:46:51;22.00;62.70
18412;DHT22;27097;51.738;19.472;2022-12-20T10:49:28;22.00;62.30
18412;DHT22;27097;51.738;19.472;2022-12-20T10:51:57;22.10;62.00
18412;DHT22;27097;51.738;19.472;2022-12-20T10:54:30;22.10;61.80
18412;DHT22;27097;51.738;19.472;2022-12-20T10:56:59;22.10;62.00
18412;DHT22;27097;51.738;19.472;2022-12-20T10:59:31;22.10;62.50
18412;DHT22;27097;51.738;19.472;2022-12-20T11:01:58;22.20;61.90
18412;DHT22;27097;51.738;19.472;2022-12-20T11:04:29;22.20;62.30
18412;DHT22;27097;51.738;19.472;2022-12-20T11:06:56;22.20;61.40
18412;DHT22;27097;51.738;19.472;2022-12-20T11:09:27;22.20;60.80
18412;DHT22;27097;51.738;19.472;2022-12-20T11:11:59;22.20;60.60
18412;DHT22;27097;51.738;19.472;2022-12-20T11:14:27;22.20;60.40
18412;DHT22;27097;51.738;19.472;2022-12-20T11:16:55;22.20;60.40
18412;DHT22;27097;51.738;19.472;2022-12-20T11:19:41;22.20;59.50
18412;DHT22;27097;51.738;19.472;2022-12-20T11:22:17;22.30;59.80
18412;DHT22;27097;51.738;19.472;2022-12-20T11:24:57;22.30;59.50
18412;DHT22;27097;51.738;19.472;2022-12-20T11:27:30;22.30;59.40
18412;DHT22;27097;51.738;19.472;2022-12-20T11:30:08;22.30;59.20
18412;DHT22;27097;51.738;19.472;2022-12-20T11:33:09;22.30;59.80
18412;DHT22;27097;51.738;19.472;2022-12-20T11:35:47;22.30;59.70
18412;DHT22;27097;51.738;19.472;2022-12-20T11:38:33;22.30;60.30
18412;DHT22;27097;51.738;19.472;2022-12-20T11:41:11;22.30;60.40
18412;DHT22;27097;51.738;19.472;2022-12-20T11:43:50;22.30;60.70
18412;DHT22;27097;51.738;19.472;2022-12-20T11:46:26;22.30;60.30
18412;DHT22;27097;51.738;19.472;2022-12-20T11:49:20;22.30;60.10
18412;DHT22;27097;51.738;19.472;2022-12-20T11:52:00;22.30;59.30
18412;DHT22;27097;51.738;19.472;2022-12-20T11:54:34;22.30;57.90
18412;DHT22;27097;51.738;19.472;2022-12-20T11:57:05;22.30;57.60
18412;DHT22;27097;51.738;19.472;2022-12-20T11:59:41;22.40;57.40
18412;DHT22;27097;51.738;19.472;2022-12-20T12:02:11;22.30;56.90
18412;DHT22;27097;51.738;19.472;2022-12-20T12:04:41;22.40;57.10
18412;DHT22;27097;51.738;19.472;2022-12-20T12:07:14;22.40;56.60
18412;DHT22;27097;51.738;19.472;2022-12-20T12:09:49;22.40;57.10
18412;DHT22;27097;51.738;19.472;2022-12-20T12:12:23;22.40;58.60
18412;DHT22;27097;51.738;19.472;2022-12-20T12:14:56;22.40;58.70
18412;DHT22;27097;51.738;19.472;2022-12-20T12:17:30;22.40;59.20
18412;DHT22;27097;51.738;19.472;2022-12-20T12:20:17;22.40;58.80
18412;DHT22;27097;51.738;19.472;2022-12-20T12:22:48;22.40;59.10
18412;DHT22;27097;51.738;19.472;2022-12-20T12:25:17;22.40;58.90
18412;DHT22;27097;51.738;19.472;2022-12-20T12:27:44;22.40;58.60
18412;DHT22;27097;51.738;19.472;2022-12-20T12:30:12;22.40;59.00
18412;DHT22;27097;51.738;19.472;2022-12-20T12:32:44;22.40;59.10
18412;DHT22;27097;51.738;19.472;2022-12-20T12:35:29;22.40;58.00
18412;DHT22;27097;51.738;19.472;2022-12-20T12:38:37;22.40;57.70
18412;DHT22;27097;51.738;19.472;2022-12-20T12:44:31;22.40;58.60
18412;DHT22;27097;51.738;19.472;2022-12-20T12:47:01;22.40;58.70
18412;DHT22;27097;51.738;19.472;2022-12-20T12:49:31;22.40;58.80
18412;DHT22;27097;51.738;19.472;2022-12-20T12:51:59;22.40;58.60
18412;DHT22;27097;51.738;19.472;2022-12-20T12:54:35;22.40;58.60
18412;DHT22;27097;51.738;19.472;2022-12-20T12:57:06;22.40;58.40
18412;DHT22;27097;51.738;19.472;2022-12-20T12:59:43;22.40;58.30
18412;DHT22;27097;51.738;19.472;2022-12-20T13:02:32;22.40;58.20
18412;DHT22;27097;51.738;19.472;2022-12-20T13:05:01;22.40;58.00
18412;DHT22;27097;51.738;19.472;2022-12-20T13:07:48;22.40;57.80
18412;DHT22;27097;51.738;19.472;2022-12-20T13:13:34;22.40;57.40
18412;DHT22;27097;51.738;19.472;2022-12-20T13:16:12;22.40;57.40
18412;DHT22;27097;51.738;19.472;2022-12-20T13:19:11;22.40;57.10
18412;DHT22;27097;51.738;19.472;2022-12-20T13:21:40;22.40;57.00
18412;DHT22;27097;51.738;19.472;2022-12-20T13:24:44;22.40;57.10
18412;DHT22;27097;51.738;19.472;2022-12-20T13:27:23;22.40;56.40
18412;DHT22;27097;51.738;19.472;2022-12-20T13:29:54;22.40;56.30
18412;DHT22;27097;51.738;19.472;2022-12-20T13:35:40;22.40;56.80
18412;DHT22;27097;51.738;19.472;2022-12-20T13:38:38;22.40;56.60
18412;DHT22;27097;51.738;19.472;2022-12-20T13:41:23;22.40;56.60
18412;DHT22;27097;51.738;19.472;2022-12-20T13:43:51;22.40;56.40
18412;DHT22;27097;51.738;19.472;2022-12-20T13:46:23;22.40;56.20
18412;DHT22;27097;51.738;19.472;2022-12-20T13:48:52;22.40;55.80
18412;DHT22;27097;51.738;19.472;2022-12-20T13:51:22;22.40;55.90
18412;DHT22;27097;51.738;19.472;2022-12-20T13:53:54;22.40;55.90
18412;DHT22;27097;51.738;19.472;2022-12-20T13:56:36;22.40;56.10
18412;DHT22;27097;51.738;19.472;2022-12-20T13:59:07;22.40;55.50
18412;DHT22;27097;51.738;19.472;2022-12-20T14:01:46;22.40;55.90
18412;DHT22;27097;51.738;19.472;2022-12-20T14:04:13;22.40;56.00
18412;DHT22;27097;51.738;19.472;2022-12-20T14:06:49;22.40;55.70
18412;DHT22;27097;51.738;19.472;2022-12-20T14:09:29;22.40;55.70
18412;DHT22;27097;51.738;19.472;2022-12-20T14:12:03;22.50;55.60
18412;DHT22;27097;51.738;19.472;2022-12-20T14:14:36;22.50;55.60
18412;DHT22;27097;51.738;19.472;2022-12-20T14:17:16;22.50;55.50
18412;DHT22;27097;51.738;19.472;2022-12-20T14:19:43;22.50;56.00
18412;DHT22;27097;51.738;19.472;2022-12-20T14:22:11;22.50;55.90
18412;DHT22;27097;51.738;19.472;2022-12-20T14:24:39;22.50;56.20
18412;DHT22;27097;51.738;19.472;2022-12-20T14:27:10;22.50;56.20
18412;DHT22;27097;51.738;19.472;2022-12-20T14:29:38;22.50;56.30
18412;DHT22;27097;51.738;19.472;2022-12-20T14:32:14;22.50;56.50
18412;DHT22;27097;51.738;19.472;2022-12-20T14:34:43;22.50;56.70
18412;DHT22;27097;51.738;19.472;2022-12-20T14:37:31;22.50;56.70
18412;DHT22;27097;51.738;19.472;2022-12-20T14:40:01;22.50;56.50
18412;DHT22;27097;51.738;19.472;2022-12-20T14:42:33;22.50;56.60
18412;DHT22;27097;51.738;19.472;2022-12-20T14:45:05;22.40;56.30
18412;DHT22;27097;51.738;19.472;2022-12-20T14:47:33;22.40;56.80
18412;DHT22;27097;51.738;19.472;2022-12-20T14:50:02;22.40;57.70
18412;DHT22;27097;51.738;19.472;2022-12-20T14:52:33;22.40;57.10
18412;DHT22;27097;51.738;19.472;2022-12-20T14:55:07;22.40;57.10
18412;DHT22;27097;51.738;19.472;2022-12-20T14:57:45;22.40;57.20
18412;DHT22;27097;51.738;19.472;2022-12-20T15:00:20;22.40;56.80
18412;DHT22;27097;51.738;19.472;2022-12-20T15:02:51;22.40;56.90
18412;DHT22;27097;51.738;19.472;2022-12-20T15:05:41;22.40;56.70
18412;DHT22;27097;51.738;19.472;2022-12-20T15:08:11;22.40;57.00
18412;DHT22;27097;51.738;19.472;2022-12-20T15:10:38;22.40;57.20
18412;DHT22;27097;51.738;19.472;2022-12-20T15:13:11;22.40;57.30
18412;DHT22;27097;51.738;19.472;2022-12-20T15:15:39;22.50;57.70
18412;DHT22;27097;51.738;19.472;2022-12-20T15:18:10;22.50;57.90
18412;DHT22;27097;51.738;19.472;2022-12-20T15:20:38;22.50;58.00
18412;DHT22;27097;51.738;19.472;2022-12-20T15:23:07;22.50;57.30
18412;DHT22;27097;51.738;19.472;2022-12-20T15:25:35;22.50;57.20
18412;DHT22;27097;51.738;19.472;2022-12-20T15:28:12;22.50;57.30
18412;DHT22;27097;51.738;19.472;2022-12-20T15:30:40;22.50;57.00
18412;DHT22;27097;51.738;19.472;2022-12-20T15:33:14;22.50;56.80
18412;DHT22;27097;51.738;19.472;2022-12-20T15:35:41;22.50;56.90
18412;DHT22;27097;51.738;19.472;2022-12-20T15:38:13;22.50;56.70
18412;DHT22;27097;51.738;19.472;2022-12-20T15:40:41;22.50;56.80
18412;DHT22;27097;51.738;19.472;2022-12-20T15:43:12;22.50;56.30
18412;DHT22;27097;51.738;19.472;2022-12-20T15:45:40;22.50;56.40
18412;DHT22;27097;51.738;19.472;2022-12-20T15:48:15;22.50;56.30